Edmonds, Idaho
Current Conditions -  °F | °C
As of 3:53 PM on Tuesday 21 Oct 2014 (Local Time) from KRXE Reporting Station
Broken Clouds Broken Clouds  
Wind Chill: 52°   Ceiling: 6000
Heat Index: 52°   Visibility: 10mi
Dew Point: 33°   Wind: 17mph
Humidity: 49%   Direction: 210°SSW
Pressure: 29.98"   Gusts: 30mph
Location:  43.7568°N, 111.624°W
Report Text: KRXE 212153Z AUTO 21015G26KT 10SM SCT047 BKN060 11/01 A2998 RMK AO2 PK WND 21027/2102 SLP139 T01110006
Loading
Personal Weather Stations






























Interactive Weather Map
Tropical Storm Tracking
New forecast layout! Learn more

10-Day Weather Forecast

Advertisements
Track Severe Weather on mobile